Time;durP1;ratioP1;P1;durP2;ratioP2;P2;SDS_P1;SDS_P2;PMS_P1;PMS_P2;Temp;Humidity;BMP_temperature;BMP_pressure;BME280_temperature;BME280_humidity;BME280_pressure;Samples;Min_cycle;Max_cycle;Signal;HPM_P1;HPM_P2
2022/02/07 00:00:39;;;;;;;;;0.00;0.00;;;;;21.42;39.28;101293.88;5062443;28;51720;-44
2022/02/07 00:03:13;;;;;;;;;0.00;0.00;;;;;21.40;39.31;101304.28;5064063;28;51211;-43
2022/02/07 00:05:39;;;;;;;;;0.75;0.00;;;;;21.38;38.85;101317.44;5065154;28;51043;-43
2022/02/07 00:08:07;;;;;;;;;0.50;0.50;;;;;21.36;38.85;101312.09;5062099;28;51127;-43
2022/02/07 00:10:34;;;;;;;;;1.50;1.50;;;;;21.35;39.24;101329.69;5058172;28;50979;-43
2022/02/07 00:12:59;;;;;;;;;1.00;1.00;;;;;21.33;38.91;101340.94;5066232;28;51410;-46
2022/02/07 00:15:25;;;;;;;;;0.25;0.25;;;;;21.31;38.79;101354.09;5060528;28;51265;-44
2022/02/07 00:17:50;;;;;;;;;1.00;1.00;;;;;21.29;38.75;101347.97;5065510;28;51368;-45
2022/02/07 00:20:19;;;;;;;;;0.00;0.00;;;;;21.29;38.80;101355.38;5065593;28;51681;-43
2022/02/07 00:22:46;;;;;;;;;0.00;0.00;;;;;21.27;38.83;101355.59;5061307;28;50945;-44
2022/02/07 00:25:12;;;;;;;;;0.00;0.00;;;;;21.26;39.04;101345.66;5067159;28;51076;-45
2022/02/07 00:27:38;;;;;;;;;1.75;1.00;;;;;21.24;39.13;101347.72;5061436;28;51000;-46
2022/02/07 00:30:06;;;;;;;;;1.50;1.00;;;;;21.23;38.58;101365.31;5065721;28;52751;-46
2022/02/07 00:32:32;;;;;;;;;1.00;1.00;;;;;21.22;38.88;101373.81;5063393;28;51221;-43
2022/02/07 00:34:57;;;;;;;;;2.00;1.75;;;;;21.20;38.55;101375.94;5065365;27;51536;-44
2022/02/07 00:37:25;;;;;;;;;0.25;0.25;;;;;21.19;38.64;101386.09;5063298;28;50991;-45
2022/02/07 00:39:57;;;;;;;;;1.50;0.00;;;;;21.17;38.79;101381.88;5065588;28;51703;-43
2022/02/07 00:42:31;;;;;;;;;0.00;0.00;;;;;21.16;38.99;101385.69;5065427;28;51726;-43
2022/02/07 00:45:00;;;;;;;;;0.00;0.00;;;;;21.15;38.88;101390.31;5065840;27;51819;-43
2022/02/07 00:47:26;;;;;;;;;0.00;0.00;;;;;21.14;38.44;101398.81;5067396;28;51144;-45
2022/02/07 00:49:53;;;;;;;;;1.00;0.00;;;;;21.12;38.59;101404.53;5066641;28;52692;-43
2022/02/07 00:52:18;;;;;;;;;0.00;0.00;;;;;21.11;38.99;101413.03;5061417;28;51267;-45
2022/02/07 00:54:44;;;;;;;;;0.00;0.00;;;;;21.10;38.82;101434.22;5059511;27;51259;-48
2022/02/07 00:57:09;;;;;;;;;0.00;0.00;;;;;21.09;38.70;101432.53;5057986;28;51004;-43
2022/02/07 00:59:34;;;;;;;;;0.00;0.00;;;;;21.08;38.65;101436.34;5061731;28;51926;-44
2022/02/07 01:02:00;;;;;;;;;1.00;0.25;;;;;21.07;38.27;101453.09;5059056;28;51145;-43
2022/02/07 01:04:25;;;;;;;;;0.50;0.50;;;;;21.06;38.32;101465.16;5065749;28;51127;-45
2022/02/07 01:06:51;;;;;;;;;0.00;0.00;;;;;21.03;38.68;101482.94;5063834;28;51139;-46
2022/02/07 01:09:25;;;;;;;;;0.00;0.00;;;;;21.01;38.63;101477.63;5063944;28;52803;-45
2022/02/07 01:20:35;;;;;;;;;1.00;1.00;;;;;20.96;38.36;101512.41;5034421;28;51232;-47
2022/02/07 01:53:01;;;;;;;;;0.25;0.25;;;;;20.80;37.79;101631.19;5062543;28;51750;-45
2022/02/07 01:57:55;;;;;;;;;0.00;0.00;;;;;20.79;38.06;101635.00;5066104;28;51132;-43
2022/02/07 02:00:22;;;;;;;;;3.00;1.00;;;;;20.77;38.23;101637.09;5067687;28;50970;-44
2022/02/07 02:02:47;;;;;;;;;0.00;0.00;;;;;20.75;37.97;101643.66;5058827;28;52938;-43
2022/02/07 02:05:14;;;;;;;;;2.00;0.25;;;;;20.75;38.25;101659.34;5071532;28;50938;-43
2022/02/07 02:07:41;;;;;;;;;1.00;0.00;;;;;20.74;37.89;101655.75;5069221;28;51167;-46
2022/02/07 02:10:08;;;;;;;;;0.50;0.00;;;;;20.73;37.60;101658.66;5068981;28;51024;-44
2022/02/07 02:12:39;;;;;;;;;0.00;0.00;;;;;20.72;38.16;101666.09;5068155;28;52958;-43
2022/02/07 02:18:10;;;;;;;;;0.00;0.00;;;;;20.70;37.61;101684.72;5064044;28;50932;-44
2022/02/07 02:46:56;;;;;;;;;0.00;0.00;;;;;20.58;37.68;101740.56;5062842;28;51323;-45
2022/02/07 02:49:24;;;;;;;;;0.00;0.00;;;;;20.56;37.75;101749.00;5073737;28;51205;-44
2022/02/07 02:51:50;;;;;;;;;3.00;1.00;;;;;20.56;37.19;101770.19;5067838;28;50980;-44
2022/02/07 02:54:15;;;;;;;;;0.00;0.00;;;;;20.56;37.29;101775.69;5069951;27;51977;-43
2022/02/07 02:56:41;;;;;;;;;0.00;0.00;;;;;20.55;37.35;101771.25;5070879;28;50972;-44
2022/02/07 02:59:07;;;;;;;;;1.00;0.00;;;;;20.53;37.74;101771.44;5068528;28;50898;-44
2022/02/07 03:01:32;;;;;;;;;0.25;0.25;;;;;20.53;37.63;101768.69;5068980;28;50964;-43
2022/02/07 03:03:58;;;;;;;;;0.00;0.00;;;;;20.53;37.69;101782.47;5073487;27;52029;-43
2022/02/07 03:06:24;;;;;;;;;0.00;0.00;;;;;20.52;37.72;101775.22;5063095;28;50985;-45
2022/02/07 03:08:49;;;;;;;;;2.50;0.75;;;;;20.50;37.09;101777.31;5070669;28;51170;-43
2022/02/07 03:11:18;;;;;;;;;0.75;0.75;;;;;20.50;37.27;101771.81;5058398;28;51140;-43
2022/02/07 03:18:54;;;;;;;;;0.00;0.00;;;;;20.46;37.51;101774.13;5060951;28;51082;-44
2022/02/07 03:21:19;;;;;;;;;1.00;0.00;;;;;20.45;37.49;101783.44;5066566;28;51368;-43
2022/02/07 03:23:45;;;;;;;;;0.25;0.00;;;;;20.45;37.52;101783.44;5063164;28;51138;-44
2022/02/07 03:26:14;;;;;;;;;0.00;0.00;;;;;20.43;37.55;101795.72;5068964;28;51053;-43
2022/02/07 03:28:39;;;;;;;;;0.25;0.25;;;;;20.43;37.25;101806.72;5070219;28;51012;-45
2022/02/07 03:31:04;;;;;;;;;0.50;0.50;;;;;20.42;37.50;101804.97;5060285;28;51204;-43
2022/02/07 03:33:30;;;;;;;;;0.00;0.00;;;;;20.42;37.46;101815.97;5063130;28;51747;-42
2022/02/07 03:35:57;;;;;;;;;0.00;0.00;;;;;20.40;37.46;101812.56;5062878;28;51069;-44
2022/02/07 03:38:22;;;;;;;;;0.00;0.00;;;;;20.40;37.25;101829.09;5062505;28;51013;-44
2022/02/07 03:40:48;;;;;;;;;1.50;0.00;;;;;20.40;37.20;101831.84;5060703;28;51259;-44
2022/02/07 03:43:13;;;;;;;;;0.25;0.25;;;;;20.38;37.26;101843.03;5067672;28;52213;-42
2022/02/07 03:45:38;;;;;;;;;3.25;0.00;;;;;20.37;37.30;101846.84;5069931;27;51085;-43
2022/02/07 03:48:04;;;;;;;;;1.00;0.00;;;;;20.38;37.40;101850.44;5069417;28;51205;-43
2022/02/07 03:50:30;;;;;;;;;0.00;0.00;;;;;20.36;36.93;101858.06;5073527;28;51204;-44
2022/02/07 03:52:55;;;;;;;;;0.00;0.00;;;;;20.35;37.04;101859.97;5062011;28;52004;-44
2022/02/07 03:55:21;;;;;;;;;0.00;0.00;;;;;20.35;37.45;101864.59;5067778;28;51399;-45
2022/02/07 03:57:46;;;;;;;;;0.75;0.75;;;;;20.33;37.25;101866.72;5062978;28;51103;-43
2022/02/07 04:00:13;;;;;;;;;1.00;0.00;;;;;20.33;37.20;101872.22;5064899;28;51201;-43
2022/02/07 04:02:43;;;;;;;;;1.00;1.00;;;;;20.32;36.89;101878.75;5063973;28;51013;-42
2022/02/07 04:07:53;;;;;;;;;0.50;0.50;;;;;20.32;36.98;101887.00;5066592;28;50844;-44
2022/02/07 04:10:19;;;;;;;;;0.75;0.75;;;;;20.30;37.15;101887.19;5058077;28;51255;-43
2022/02/07 04:12:51;;;;;;;;;0.00;0.00;;;;;20.30;36.95;101900.09;5066208;28;51042;-43
2022/02/07 04:15:19;;;;;;;;;2.00;0.00;;;;;20.28;37.28;101892.06;5059394;28;51131;-44
2022/02/07 04:17:50;;;;;;;;;0.75;0.00;;;;;20.27;37.30;101901.34;5068134;28;51192;-43
2022/02/07 04:20:17;;;;;;;;;0.25;0.00;;;;;20.28;37.01;101907.72;5068439;28;51095;-44
2022/02/07 04:22:43;;;;;;;;;0.25;0.00;;;;;20.26;36.88;101918.91;5066092;28;52021;-44
2022/02/07 04:25:09;;;;;;;;;0.00;0.00;;;;;20.27;37.01;101919.75;5058271;28;50890;-42
2022/02/07 04:27:35;;;;;;;;;0.00;0.00;;;;;20.26;37.21;101923.56;5065196;28;51278;-43
2022/02/07 04:30:00;;;;;;;;;0.00;0.00;;;;;20.24;37.24;101929.28;5090770;27;51041;-42
2022/02/07 04:32:26;;;;;;;;;0.00;0.00;;;;;20.24;37.22;101936.66;5069271;28;51101;-43
2022/02/07 04:34:51;;;;;;;;;0.75;0.00;;;;;20.22;36.90;101936.88;5063119;28;51004;-46
2022/02/07 04:37:17;;;;;;;;;1.00;1.00;;;;;20.22;37.14;101947.00;5090896;27;50993;-43
2022/02/07 04:39:42;;;;;;;;;0.00;0.00;;;;;20.21;36.85;101945.28;5069454;28;51251;-42
2022/02/07 04:42:10;;;;;;;;;0.75;0.00;;;;;20.22;37.25;101949.75;5069071;28;51317;-43
2022/02/07 04:44:50;;;;;;;;;2.25;0.00;;;;;20.19;36.92;101965.59;5066125;28;51358;-43
2022/02/07 04:55:07;;;;;;;;;0.00;0.00;;;;;20.16;36.88;101968.75;5069697;28;51371;-43
2022/02/07 05:15:47;;;;;;;;;0.25;0.25;;;;;20.08;36.68;101993.59;5068970;28;51261;-43
2022/02/07 05:18:12;;;;;;;;;1.00;0.00;;;;;20.08;36.80;102015.63;5064026;28;51253;-52
2022/02/07 05:20:38;;;;;;;;;0.00;0.00;;;;;20.08;36.93;102012.00;5069455;28;51301;-43
2022/02/07 05:23:03;;;;;;;;;1.00;0.00;;;;;20.07;36.71;102019.41;5065289;28;51812;-43
2022/02/07 05:25:29;;;;;;;;;0.75;0.75;;;;;20.07;36.98;102032.31;5064196;28;51046;-43
2022/02/07 05:27:54;;;;;;;;;1.75;1.00;;;;;20.06;36.89;102025.09;5069069;28;51142;-49
2022/02/07 05:30:19;;;;;;;;;1.00;0.00;;;;;20.06;36.79;102028.72;5059898;28;51330;-43
2022/02/07 05:32:45;;;;;;;;;0.50;0.50;;;;;20.04;36.65;102030.81;5064136;28;52005;-43
2022/02/07 05:35:10;;;;;;;;;1.00;1.00;;;;;20.05;36.55;102034.41;5066672;27;51265;-43
2022/02/07 05:37:36;;;;;;;;;0.25;0.00;;;;;20.03;37.14;102037.34;5063346;28;50890;-47
2022/02/07 05:40:08;;;;;;;;;1.00;0.00;;;;;20.02;37.13;102043.91;5065050;28;51066;-42
2022/02/07 05:42:35;;;;;;;;;0.75;0.00;;;;;20.01;36.71;102042.19;5064435;28;52143;-43
2022/02/07 05:45:02;;;;;;;;;1.50;1.00;;;;;20.01;36.66;102066.94;5089271;27;51083;-43
2022/02/07 05:47:27;;;;;;;;;1.75;0.00;;;;;20.01;36.79;102066.06;5068468;28;51001;-44
2022/02/07 05:49:52;;;;;;;;;1.25;0.00;;;;;20.00;36.69;102069.88;5067274;28;51279;-44
2022/02/07 05:52:18;;;;;;;;;0.50;0.50;;;;;19.99;36.95;102071.75;5064841;28;51609;-47
2022/02/07 05:54:45;;;;;;;;;1.00;0.00;;;;;19.99;36.74;102076.41;5061515;28;51020;-43
2022/02/07 05:57:11;;;;;;;;;1.50;0.75;;;;;19.98;36.58;102077.47;5065346;28;51019;-44
2022/02/07 05:59:37;;;;;;;;;1.00;0.00;;;;;19.97;36.96;102093.09;5068404;28;50898;-46
2022/02/07 06:02:03;;;;;;;;;1.00;0.75;;;;;19.96;37.06;102091.41;5062868;28;51622;-45
2022/02/07 06:04:29;;;;;;;;;0.00;0.00;;;;;19.96;36.99;102099.66;5072861;28;51036;-43
2022/02/07 06:06:56;;;;;;;;;0.75;0.75;;;;;19.96;36.75;102101.56;5059851;28;51212;-42
2022/02/07 06:09:21;;;;;;;;;1.00;1.00;;;;;19.95;36.50;102119.09;5062893;28;50996;-43
2022/02/07 06:11:46;;;;;;;;;0.25;0.00;;;;;19.95;36.70;102122.69;5064522;28;51102;-44
2022/02/07 06:14:12;;;;;;;;;5.75;0.75;;;;;19.94;36.88;102118.25;5068085;28;50896;-46
2022/02/07 06:16:37;;;;;;;;;3.75;1.00;;;;;19.94;36.06;102126.50;5068229;27;50945;-43
2022/02/07 06:19:03;;;;;;;;;1.00;1.00;;;;;19.93;35.67;102129.44;5067959;28;50897;-44
2022/02/07 06:21:31;;;;;;;;;1.00;1.00;;;;;19.89;35.36;102135.28;5063670;28;51642;-46
2022/02/07 06:23:57;;;;;;;;;3.50;1.00;;;;;19.88;34.65;102140.97;5063182;28;51339;-42
2022/02/07 06:26:22;;;;;;;;;1.00;1.00;;;;;19.84;34.64;102146.00;5070786;28;51021;-45
2022/02/07 06:28:48;;;;;;;;;1.00;1.00;;;;;19.80;34.14;102150.19;5067977;27;51757;-45
2022/02/07 06:31:13;;;;;;;;;2.25;0.50;;;;;19.77;34.31;102147.78;5061605;28;51612;-46
2022/02/07 06:33:38;;;;;;;;;2.75;2.25;;;;;19.75;33.94;102146.28;5053267;28;50971;-45
2022/02/07 06:36:04;;;;;;;;;5.00;1.75;;;;;19.70;33.82;102155.09;5055894;27;51193;-44
2022/02/07 06:38:29;;;;;;;;;4.00;1.50;;;;;19.67;33.80;102146.34;5036616;28;51187;-45
2022/02/07 06:40:55;;;;;;;;;4.25;4.00;;;;;19.65;33.63;102141.03;5060808;28;51908;-45
2022/02/07 06:43:20;;;;;;;;;1.75;1.75;;;;;19.68;33.35;102153.53;5062752;28;51437;-42
2022/02/07 06:45:46;;;;;;;;;3.00;1.00;;;;;19.74;33.57;102163.81;5057392;28;51153;-43
2022/02/07 06:48:11;;;;;;;;;1.75;1.75;;;;;19.80;33.77;102166.69;5059706;28;51079;-45
2022/02/07 06:50:36;;;;;;;;;1.25;0.50;;;;;19.89;33.90;102173.78;5073907;27;51858;-50
2022/02/07 06:53:02;;;;;;;;;1.00;1.00;;;;;19.99;34.13;102178.19;5068135;28;50949;-46
2022/02/07 06:55:27;;;;;;;;;2.00;1.00;;;;;20.08;34.15;102180.66;5067613;27;50987;-44
2022/02/07 06:57:53;;;;;;;;;1.50;1.00;;;;;20.15;34.17;102181.63;5066924;28;51151;-42
2022/02/07 07:00:18;;;;;;;;;2.00;0.50;;;;;20.24;34.34;102185.16;5066055;28;51059;-49
2022/02/07 07:02:44;;;;;;;;;2.25;0.75;;;;;20.33;33.96;102177.66;5072904;28;51119;-43
2022/02/07 07:05:13;;;;;;;;;2.50;0.25;;;;;20.41;34.08;102177.53;5070255;27;51166;-42
2022/02/07 07:07:39;;;;;;;;;4.50;1.00;;;;;20.48;34.26;102192.31;5069543;27;51028;-50
2022/02/07 07:10:07;;;;;;;;;3.75;1.00;;;;;20.57;34.35;102193.06;5064572;28;51807;-58
2022/02/07 07:12:33;;;;;;;;;1.25;1.25;;;;;20.64;34.58;102203.13;5060618;28;52426;-55
2022/02/07 07:15:06;;;;;;;;;4.50;2.00;;;;;20.72;34.32;102202.16;5063084;28;51477;-42
2022/02/07 07:17:31;;;;;;;;;1.00;1.00;;;;;20.80;34.75;102188.28;5064115;28;51223;-47
2022/02/07 07:20:01;;;;;;;;;3.00;0.75;;;;;20.88;34.88;102206.63;5057422;28;51186;-43
2022/02/07 07:22:27;;;;;;;;;2.00;2.00;;;;;20.94;34.49;102203.94;5057741;28;50993;-48
2022/02/07 07:24:52;;;;;;;;;1.00;0.75;;;;;20.98;34.62;102209.94;5066787;27;51489;-45
2022/02/07 07:27:23;;;;;;;;;3.25;2.00;;;;;20.99;34.72;102226.25;5072368;28;51945;-47
2022/02/07 07:29:48;;;;;;;;;1.75;1.00;;;;;21.00;34.69;102232.63;5056387;28;51082;-50
2022/02/07 07:32:19;;;;;;;;;1.00;1.00;;;;;21.00;35.11;102238.13;5055481;28;51071;-44
2022/02/07 07:34:44;;;;;;;;;1.75;1.50;;;;;20.99;35.69;102241.94;5058534;28;51288;-44
2022/02/07 07:37:10;;;;;;;;;1.00;1.00;;;;;20.98;35.67;102252.09;5086274;27;51098;-44
2022/02/07 07:39:36;;;;;;;;;3.00;2.50;;;;;20.99;35.54;102261.22;5058358;28;51026;-46
2022/02/07 07:42:03;;;;;;;;;2.75;0.75;;;;;21.00;35.12;102262.91;5054691;28;51213;-44
2022/02/07 07:44:33;;;;;;;;;2.00;1.50;;;;;21.02;35.15;102267.19;5050527;28;51247;-45
2022/02/07 07:47:06;;;;;;;;;5.00;2.00;;;;;21.09;35.73;102280.22;5054312;28;51302;-44
2022/02/07 07:49:37;;;;;;;;;4.25;2.75;;;;;21.16;34.91;102292.19;5054371;28;52804;-44
2022/02/07 07:52:09;;;;;;;;;1.50;1.25;;;;;21.23;35.07;102304.13;5055156;28;51260;-43
2022/02/07 07:54:55;;;;;;;;;1.75;1.75;;;;;21.31;34.81;102306.81;5057024;28;51494;-45
2022/02/07 08:02:53;;;;;;;;;3.00;2.25;;;;;21.39;34.42;102330.66;5055832;28;51122;-45
2022/02/07 08:05:41;;;;;;;;;3.25;2.75;;;;;21.36;34.66;102331.88;5062519;28;51111;-44
2022/02/07 08:08:20;;;;;;;;;4.00;3.00;;;;;21.31;34.72;102334.38;5065051;28;51127;-44
2022/02/07 08:10:58;;;;;;;;;6.00;3.00;;;;;21.25;34.74;102335.94;5069231;28;52348;-43
2022/02/07 08:13:27;;;;;;;;;4.25;2.25;;;;;21.22;34.61;102341.84;5059328;28;51966;-44
2022/02/07 08:15:53;;;;;;;;;2.00;2.00;;;;;21.17;34.64;102337.97;5061996;27;51107;-44
2022/02/07 08:18:18;;;;;;;;;5.00;3.25;;;;;21.14;34.51;102347.44;5058117;28;51324;-43
2022/02/07 08:20:44;;;;;;;;;2.25;2.25;;;;;21.12;34.28;102362.47;5088907;27;52704;-44
2022/02/07 08:23:10;;;;;;;;;3.00;1.50;;;;;21.08;34.49;102364.75;5069732;28;52741;-45
2022/02/07 08:25:36;;;;;;;;;2.50;2.50;;;;;21.04;34.79;102360.66;5064160;28;51132;-44
2022/02/07 08:28:02;;;;;;;;;2.00;1.00;;;;;21.01;34.75;102374.81;5060024;28;51114;-44
2022/02/07 08:30:28;;;;;;;;;2.75;2.00;;;;;20.99;34.72;102382.44;5065906;28;52867;-43
2022/02/07 08:32:54;;;;;;;;;2.25;2.25;;;;;20.95;34.83;102383.88;5062175;28;51220;-44
2022/02/07 08:35:20;;;;;;;;;4.00;2.00;;;;;20.92;34.90;102389.72;5071582;28;51300;-44
2022/02/07 08:37:45;;;;;;;;;2.25;1.75;;;;;20.89;35.06;102390.97;5058884;28;51197;-45
2022/02/07 08:40:11;;;;;;;;;2.00;1.00;;;;;20.86;34.75;102396.84;5062398;28;51845;-44
2022/02/07 08:42:36;;;;;;;;;3.75;2.25;;;;;20.84;34.69;102398.06;5066995;28;51075;-43
2022/02/07 08:45:02;;;;;;;;;2.75;1.50;;;;;20.80;35.07;102400.34;5066418;27;51236;-43
2022/02/07 08:47:28;;;;;;;;;2.00;2.00;;;;;20.79;35.28;102406.91;5067118;28;51298;-45
2022/02/07 08:49:53;;;;;;;;;3.75;2.25;;;;;20.75;34.97;102395.41;5067956;28;51718;-44
2022/02/07 08:52:19;;;;;;;;;2.00;2.00;;;;;20.73;34.94;102393.88;5066105;28;51054;-44
2022/02/07 08:54:45;;;;;;;;;3.75;2.75;;;;;20.71;34.80;102395.97;5069106;28;51044;-44
2022/02/07 08:57:25;;;;;;;;;4.00;3.00;;;;;20.67;34.85;102406.50;5066072;28;50928;-46
2022/02/07 09:02:49;;;;;;;;;3.50;2.75;;;;;20.63;34.89;102424.41;5064603;28;51318;-45
2022/02/07 09:07:44;;;;;;;;;3.00;1.50;;;;;20.59;35.00;102434.09;5068118;28;52424;-44
2022/02/07 09:10:09;;;;;;;;;4.25;3.00;;;;;20.57;35.31;102446.34;5069143;28;51638;-44
2022/02/07 09:12:35;;;;;;;;;2.50;1.00;;;;;20.55;35.17;102454.78;5064617;28;51169;-43
2022/02/07 09:15:17;;;;;;;;;1.00;0.75;;;;;20.54;35.05;102460.50;5064596;28;51134;-44
2022/02/07 09:17:42;;;;;;;;;2.00;2.00;;;;;20.52;35.02;102477.16;5061462;28;51428;-44
2022/02/07 09:20:08;;;;;;;;;4.50;3.00;;;;;20.51;34.96;102480.09;5067345;28;51038;-44
2022/02/07 09:22:33;;;;;;;;;1.25;0.75;;;;;20.48;35.12;102475.81;5060736;28;51210;-44
2022/02/07 09:24:58;;;;;;;;;2.25;2.25;;;;;20.46;35.15;102480.66;5057153;28;51126;-46
2022/02/07 09:27:24;;;;;;;;;3.75;3.00;;;;;20.45;35.50;102476.19;5063512;28;51213;-45
2022/02/07 09:29:49;;;;;;;;;3.00;3.00;;;;;20.44;35.37;102496.50;5064612;28;52249;-44
2022/02/07 09:32:15;;;;;;;;;2.00;1.00;;;;;20.42;35.11;102504.94;5068299;28;50948;-44
2022/02/07 09:34:40;;;;;;;;;2.25;2.25;;;;;20.42;35.38;102504.03;5057097;28;50852;-46
2022/02/07 09:37:06;;;;;;;;;3.00;1.00;;;;;20.41;35.12;102518.84;5063109;28;51566;-45
2022/02/07 09:39:31;;;;;;;;;1.75;1.75;;;;;20.39;35.10;102518.19;5067996;28;51037;-45
2022/02/07 09:41:59;;;;;;;;;2.00;2.00;;;;;20.38;35.52;102531.06;5058634;28;51294;-43
2022/02/07 09:44:25;;;;;;;;;4.50;2.00;;;;;20.37;34.86;102547.78;5055504;28;51043;-43
2022/02/07 09:46:52;;;;;;;;;1.50;1.50;;;;;20.38;35.34;102552.25;5064725;27;51174;-44
2022/02/07 09:49:18;;;;;;;;;4.25;2.00;;;;;20.39;35.47;102560.31;5052752;28;51084;-44
2022/02/07 09:51:45;;;;;;;;;2.00;2.00;;;;;20.40;35.29;102563.94;5061225;28;51737;-45
2022/02/07 09:54:19;;;;;;;;;3.25;2.00;;;;;20.40;35.36;102567.53;5047887;28;51296;-45
2022/02/07 09:56:46;;;;;;;;;3.50;2.25;;;;;20.39;35.59;102560.31;5053518;28;50894;-47
2022/02/07 09:59:14;;;;;;;;;3.75;3.00;;;;;20.39;36.13;102570.47;5046539;28;51891;-47
2022/02/07 10:01:46;;;;;;;;;1.25;1.25;;;;;20.37;36.27;102572.56;5049274;28;51099;-46
2022/02/07 10:04:22;;;;;;;;;4.00;2.75;;;;;20.35;36.21;102581.00;5046849;28;51163;-49
2022/02/07 10:12:22;;;;;;;;;2.50;1.00;;;;;20.31;36.96;102598.88;5054840;28;51048;-46
2022/02/07 10:17:52;;;;;;;;;4.00;2.75;;;;;20.29;37.14;102611.13;5044423;28;51245;-45
2022/02/07 10:43:21;;;;;;;;;3.00;1.00;;;;;20.30;38.01;102621.94;5057813;28;51056;-50
2022/02/07 10:46:07;;;;;;;;;2.00;2.00;;;;;20.31;37.77;102614.53;5051108;28;51442;-46
2022/02/07 10:48:42;;;;;;;;;1.50;1.50;;;;;20.31;37.63;102615.41;5052016;28;51955;-47
2022/02/07 10:51:18;;;;;;;;;2.25;2.25;;;;;20.34;38.12;102623.31;5049648;28;51035;-45
2022/02/07 10:54:03;;;;;;;;;1.00;1.00;;;;;20.41;38.31;102617.94;5051751;28;51807;-46
2022/02/07 10:56:45;;;;;;;;;1.00;1.00;;;;;20.53;38.41;102621.19;5052471;28;51355;-48
2022/02/07 10:59:17;;;;;;;;;3.50;1.75;;;;;20.67;38.18;102618.53;5054430;28;51187;-47
2022/02/07 11:02:42;;;;;;;;;4.25;1.00;;;;;20.81;37.93;102613.28;5050666;28;51261;-47
2022/02/07 11:04:39;;;;;;;;;1.00;1.00;;;;;20.95;37.82;102607.84;5052169;28;51630;-47
2022/02/07 11:07:05;;;;;;;;;1.00;1.00;;;;;21.09;37.37;102610.84;5054891;28;51063;-45
2022/02/07 11:09:42;;;;;;;;;1.25;1.00;;;;;21.22;37.25;102613.84;5055971;28;51061;-48
2022/02/07 11:12:45;;;;;;;;;1.25;1.25;;;;;21.35;37.28;102618.75;5055080;28;51159;-47
2022/02/07 11:15:35;;;;;;;;;2.00;2.00;;;;;21.48;37.03;102619.00;5054013;28;51540;-49
2022/02/07 11:28:18;;;;;;;;;1.75;1.75;;;;;21.50;37.33;102608.63;5062449;28;51543;-48
2022/02/07 11:30:46;;;;;;;;;0.50;0.50;;;;;21.48;36.98;102613.50;5053104;28;51689;-48
2022/02/07 11:34:04;;;;;;;;;4.00;3.00;;;;;21.45;37.49;102622.97;5051960;28;51449;-48
2022/02/07 11:36:40;;;;;;;;;2.25;1.25;;;;;21.43;37.26;102629.72;5048465;28;51197;-48
2022/02/07 11:39:18;;;;;;;;;3.00;1.00;;;;;21.46;37.68;102634.84;5052563;28;51183;-45
2022/02/07 11:41:55;;;;;;;;;1.00;1.00;;;;;21.53;37.49;102631.16;5069230;27;51342;-46
2022/02/07 11:44:36;;;;;;;;;3.25;1.00;;;;;21.63;37.50;102641.94;5053293;28;51110;-45
2022/02/07 11:47:24;;;;;;;;;1.75;0.75;;;;;21.73;37.40;102639.78;5057457;28;51037;-46
2022/02/07 11:49:55;;;;;;;;;4.25;2.25;;;;;21.78;37.01;102628.16;5058555;28;51165;-46
2022/02/07 11:52:27;;;;;;;;;2.75;1.50;;;;;21.80;36.90;102632.47;5060220;28;51019;-47
2022/02/07 11:54:57;;;;;;;;;2.25;0.75;;;;;21.78;37.35;102637.31;5058968;27;51182;-47
2022/02/07 11:57:30;;;;;;;;;1.50;0.00;;;;;21.75;37.17;102645.94;5059830;28;51836;-47
2022/02/07 11:59:59;;;;;;;;;2.25;1.00;;;;;21.73;37.33;102639.78;5054856;28;51413;-48
2022/02/07 12:02:36;;;;;;;;;2.00;2.00;;;;;21.71;37.78;102647.38;5062559;28;51061;-49
2022/02/07 12:05:06;;;;;;;;;6.00;1.00;;;;;21.69;37.25;102641.19;5055650;28;51202;-48
2022/02/07 12:07:36;;;;;;;;;2.50;1.25;;;;;21.67;37.79;102642.41;5064583;28;52299;-45
2022/02/07 12:12:40;;;;;;;;;2.00;2.00;;;;;21.61;37.79;102641.28;5064795;28;51004;-48
2022/02/07 12:15:06;;;;;;;;;2.00;2.00;;;;;21.58;38.03;102637.00;5059504;27;51150;-47
2022/02/07 12:17:39;;;;;;;;;1.25;1.25;;;;;21.62;37.84;102637.47;5054835;28;51466;-47
2022/02/07 12:20:06;;;;;;;;;1.75;1.00;;;;;21.67;37.15;102639.66;5056695;28;51102;-47
2022/02/07 12:22:48;;;;;;;;;1.00;1.00;;;;;21.74;37.50;102624.94;5055591;28;50985;-46
2022/02/07 12:25:36;;;;;;;;;2.25;1.75;;;;;21.78;37.29;102631.81;5064443;27;51364;-48
2022/02/07 12:28:06;;;;;;;;;2.00;2.00;;;;;21.76;37.63;102625.59;5062837;28;50946;-48
2022/02/07 12:30:44;;;;;;;;;2.25;1.00;;;;;21.73;37.84;102623.22;5064488;28;51518;-47
2022/02/07 12:33:10;;;;;;;;;2.25;1.50;;;;;21.69;37.77;102635.69;5060163;28;51321;-50
2022/02/07 12:35:35;;;;;;;;;1.75;1.75;;;;;21.64;38.02;102629.00;5072735;27;51161;-46
2022/02/07 12:38:01;;;;;;;;;2.50;2.25;;;;;21.59;37.47;102644.22;5067719;28;51125;-47
2022/02/07 12:40:26;;;;;;;;;2.00;2.00;;;;;21.56;37.74;102635.44;5066291;28;51210;-46
2022/02/07 12:42:53;;;;;;;;;1.75;1.75;;;;;21.51;37.60;102637.91;5072303;28;51124;-47
2022/02/07 12:45:23;;;;;;;;;2.00;2.00;;;;;21.48;37.39;102632.78;5073408;28;50966;-46
2022/02/07 12:47:50;;;;;;;;;2.00;2.00;;;;;21.49;37.51;102628.97;5062691;28;51048;-48
2022/02/07 12:50:18;;;;;;;;;2.00;2.00;;;;;21.54;37.51;102630.13;5079174;27;50973;-47
2022/02/07 12:52:44;;;;;;;;;4.00;4.00;;;;;21.60;37.42;102632.16;5060898;27;51230;-46
2022/02/07 12:55:14;;;;;;;;;2.50;1.75;;;;;21.66;37.65;102624.16;5059948;28;50965;-44
2022/02/07 12:57:44;;;;;;;;;2.75;2.25;;;;;21.67;37.94;102623.97;5063226;28;51151;-45
2022/02/07 13:00:16;;;;;;;;;3.75;3.50;;;;;21.64;37.55;102624.34;5067046;28;51372;-46
2022/02/07 13:02:47;;;;;;;;;2.75;1.75;;;;;21.63;37.84;102624.53;5064218;28;51023;-46
2022/02/07 13:05:17;;;;;;;;;5.25;3.50;;;;;21.58;37.97;102614.06;5055826;28;51029;-45
2022/02/07 13:07:47;;;;;;;;;2.75;2.50;;;;;21.54;38.04;102616.34;5065268;28;51906;-47
2022/02/07 13:10:17;;;;;;;;;2.50;2.00;;;;;21.50;37.71;102616.91;5066711;28;50957;-45
2022/02/07 13:15:29;;;;;;;;;3.00;2.75;;;;;21.40;37.86;102628.19;5066857;28;51225;-45
2022/02/07 13:18:01;;;;;;;;;5.25;2.00;;;;;21.38;38.13;102626.69;5082798;27;54088;-51
2022/02/07 13:20:26;;;;;;;;;2.00;2.00;;;;;21.42;37.73;102625.25;5067146;28;51266;-44
2022/02/07 13:23:14;;;;;;;;;2.00;1.00;;;;;21.47;37.61;102622.81;5054714;28;51031;-44
2022/02/07 13:25:51;;;;;;;;;2.75;2.75;;;;;21.53;38.29;102624.81;5064509;28;51163;-46
2022/02/07 13:28:20;;;;;;;;;2.75;2.50;;;;;21.56;38.21;102627.19;5059638;28;52674;-44
2022/02/07 13:30:48;;;;;;;;;4.50;4.00;;;;;21.56;38.12;102624.41;5057941;28;51460;-46
2022/02/07 13:33:13;;;;;;;;;3.25;2.00;;;;;21.53;37.87;102633.06;5053400;28;51069;-47
2022/02/07 13:35:45;;;;;;;;;3.50;3.00;;;;;21.50;37.97;102645.34;5048657;27;51425;-47
2022/02/07 13:38:16;;;;;;;;;2.00;1.50;;;;;21.47;38.07;102633.84;5052080;28;51851;-47
2022/02/07 13:40:53;;;;;;;;;3.50;3.50;;;;;21.44;37.80;102645.22;5050636;28;51235;-47
2022/02/07 13:43:25;;;;;;;;;2.00;2.00;;;;;21.45;38.00;102647.78;5051423;28;51037;-45
2022/02/07 13:45:55;;;;;;;;;3.50;3.00;;;;;21.44;37.94;102653.47;5044864;28;51129;-45
2022/02/07 13:48:24;;;;;;;;;2.50;2.00;;;;;21.44;37.84;102648.81;5048154;28;51753;-46
2022/02/07 13:50:53;;;;;;;;;4.00;2.25;;;;;21.46;37.73;102641.22;5047963;28;51408;-47
2022/02/07 13:53:20;;;;;;;;;1.75;1.75;;;;;21.53;37.72;102644.97;5069680;27;51311;-43
2022/02/07 13:55:49;;;;;;;;;3.00;2.25;;;;;21.62;38.02;102645.75;5053464;28;51156;-46
2022/02/07 13:58:31;;;;;;;;;3.00;2.75;;;;;21.71;37.58;102644.63;5051376;28;52134;-43
2022/02/07 14:00:59;;;;;;;;;5.75;4.00;;;;;21.75;37.90;102651.47;5051902;28;51413;-43
2022/02/07 14:03:32;;;;;;;;;1.50;1.50;;;;;21.76;37.50;102642.16;5050900;28;51519;-51
2022/02/07 14:06:15;;;;;;;;;2.25;2.00;;;;;21.77;37.31;102641.09;5052639;28;51324;-46
2022/02/07 14:08:45;;;;;;;;;4.00;3.75;;;;;21.77;37.52;102643.84;5049313;28;51119;-46
2022/02/07 14:11:13;;;;;;;;;2.00;2.00;;;;;21.74;37.61;102643.38;5051265;28;51228;-48
2022/02/07 14:13:40;;;;;;;;;1.50;1.25;;;;;21.74;37.68;102648.91;5053422;28;52507;-45